Doris — 9HA2632 — position and weather

sailwx.info

Track history (hours):
 
Tides and Currents Weather Stations Pressure Air Temp Water Temp Dewpoint Dewpoint Depression Visibility Wind Speed Wind Dir Waves Ship Positions

Doris

Last reported at 2016-Jul-28 20:33 UTC. Time now 2016-Jul-30 13:07 UTC.
Position N 01°54' E 102°21'.

Length 182 m; draft 8.9 m.

Type: Cargo ship. MMSI: 215080000.

Date/timePositionNaut miles runAvg speedWind from/ knotsBaromVisibWave heightAir tempDewpointWater temp
2016-Jul-28 20:33N 01°54' E 102°21'1313.0
2016-Jul-28 19:33N 01°49' E 102°33'1313.0
2016-Jul-28 18:33N 01°44' E 102°45'6013.7
2016-Jul-28 14:09N 01°12' E 103°36'912.5
2016-Jul-28 13:28N 01°08' E 103°44'1112.2
2016-Jul-28 12:33N 01°13' E 103°54'5 4.2
2016-Jul-28 11:19N 01°17' E 103°57'0 0.0
2016-Jul-28 10:31N 01°17' E 103°57'0 0.1
2016-Jul-28 09:31N 01°17' E 103°57'0 0.0
2016-Jul-28 08:31N 01°17' E 103°57'0 0.0
2016-Jul-28 07:31N 01°17' E 103°57'0 0.1
2016-Jul-28 06:25N 01°17' E 103°57'0 0.0
2016-Jul-28 05:25N 01°17' E 103°57'0 0.2
2016-Jul-28 04:31N 01°17' E 103°57'0 0.1
2016-Jul-28 03:28N 01°17' E 103°57'0 0.0
2016-Jul-28 02:31N 01°17' E 103°57'0 0.0
2016-Jul-28 01:31N 01°17' E 103°57'1 0.8
2016-Jul-28 00:33N 01°17' E 103°58'4 4.4
2016-Jul-27 23:33N 01°16' E 104°02'  
2016-Jul-22 15:10N 23°26' E 119°53'6 9.6
2016-Jul-22 14:33N 23°32' E 119°53'9 8.8
2016-Jul-22 13:31N 23°41' E 119°53'21 9.7
2016-Jul-22 11:21N 24°01' E 119°57'1011.2
2016-Jul-22 10:30N 24°10' E 120°02'1212.3
2016-Jul-22 09:33N 24°20' E 120°08'1312.7
2016-Jul-22 08:33N 24°31' E 120°15'1412.6
2016-Jul-22 07:26N 24°43' E 120°23'2312.0
2016-Jul-22 05:33N 25°02' E 120°36'37710.8
2016-Jul-20 18:33N 31°10' E 122°12'1312.3
2016-Jul-20 17:29N 31°15' E 121°58'1110.4
2016-Jul-20 16:24N 31°18' E 121°46'7 7.7
2016-Jul-20 15:33N 31°21' E 121°39'8 8.5
2016-Jul-20 14:33N 31°25' E 121°30'9 8.7
2016-Jul-20 13:34N 31°31' E 121°23'1212.0
2016-Jul-20 12:33N 31°40' E 121°13'1312.9
2016-Jul-20 11:33N 31°47' E 121°00'1211.1
2016-Jul-20 10:29N 31°56' E 120°52'1211.1
2016-Jul-20 09:24N 31°60' E 120°38'1213.6
2016-Jul-20 08:31N 32°01' E 120°24'1312.9
2016-Jul-20 07:31N 31°56' E 120°10'1212.4
2016-Jul-20 06:33N 32°01' E 119°58'  
Track history (hours):
 
Tides and Currents Weather Stations Pressure Air Temp Water Temp Dewpoint Dewpoint Depression Visibility Wind Speed Wind Dir Waves Ship Positions

Doris

Last reported at 2016-Jul-28 20:33 UTC. Time now 2016-Jul-30 13:07 UTC.
Position N 01°54' E 102°21'.

Length 182 m; draft 8.9 m.

Type: Cargo ship. MMSI: 215080000.

Date/timePositionNaut miles runAvg speedWind from/ knotsBaromVisibWave heightAir tempDewpointWater temp
2016-Jul-28 20:33N 01°54' E 102°21'1313.0
2016-Jul-28 19:33N 01°49' E 102°33'1313.0
2016-Jul-28 18:33N 01°44' E 102°45'6013.7
2016-Jul-28 14:09N 01°12' E 103°36'912.5
2016-Jul-28 13:28N 01°08' E 103°44'1112.2
2016-Jul-28 12:33N 01°13' E 103°54'5 4.2
2016-Jul-28 11:19N 01°17' E 103°57'0 0.0
2016-Jul-28 10:31N 01°17' E 103°57'0 0.1
2016-Jul-28 09:31N 01°17' E 103°57'0 0.0
2016-Jul-28 08:31N 01°17' E 103°57'0 0.0
2016-Jul-28 07:31N 01°17' E 103°57'0 0.1
2016-Jul-28 06:25N 01°17' E 103°57'0 0.0
2016-Jul-28 05:25N 01°17' E 103°57'0 0.2
2016-Jul-28 04:31N 01°17' E 103°57'0 0.1
2016-Jul-28 03:28N 01°17' E 103°57'0 0.0
2016-Jul-28 02:31N 01°17' E 103°57'0 0.0
2016-Jul-28 01:31N 01°17' E 103°57'1 0.8
2016-Jul-28 00:33N 01°17' E 103°58'4 4.4
2016-Jul-27 23:33N 01°16' E 104°02'  
2016-Jul-22 15:10N 23°26' E 119°53'6 9.6
2016-Jul-22 14:33N 23°32' E 119°53'9 8.8
2016-Jul-22 13:31N 23°41' E 119°53'21 9.7
2016-Jul-22 11:21N 24°01' E 119°57'1011.2
2016-Jul-22 10:30N 24°10' E 120°02'1212.3
2016-Jul-22 09:33N 24°20' E 120°08'1312.7
2016-Jul-22 08:33N 24°31' E 120°15'1412.6
2016-Jul-22 07:26N 24°43' E 120°23'2312.0
2016-Jul-22 05:33N 25°02' E 120°36'37710.8
2016-Jul-20 18:33N 31°10' E 122°12'1312.3
2016-Jul-20 17:29N 31°15' E 121°58'1110.4
2016-Jul-20 16:24N 31°18' E 121°46'7 7.7
2016-Jul-20 15:33N 31°21' E 121°39'8 8.5
2016-Jul-20 14:33N 31°25' E 121°30'9 8.7
2016-Jul-20 13:34N 31°31' E 121°23'1212.0
2016-Jul-20 12:33N 31°40' E 121°13'1312.9
2016-Jul-20 11:33N 31°47' E 121°00'1211.1
2016-Jul-20 10:29N 31°56' E 120°52'1211.1
2016-Jul-20 09:24N 31°60' E 120°38'1213.6
2016-Jul-20 08:31N 32°01' E 120°24'1312.9
2016-Jul-20 07:31N 31°56' E 120°10'1212.4
2016-Jul-20 06:33N 32°01' E 119°58'  

Dump ship's entire track history